createdAt,value
2019-03-04T00:00:55.113Z,77.56
2019-03-04T00:03:25.715Z,77.48
2019-03-04T00:05:56.200Z,77.11
2019-03-04T00:08:26.653Z,77.52
2019-03-04T00:10:57.141Z,77.12
2019-03-04T00:13:27.596Z,76.91
2019-03-04T00:15:58.005Z,76.67
2019-03-04T00:18:28.513Z,76.93
2019-03-04T00:20:58.943Z,76.57
2019-03-04T00:23:29.392Z,76.24
2019-03-04T00:25:59.810Z,75.66
2019-03-04T00:28:30.338Z,76.19
2019-03-04T00:31:00.772Z,75.58
2019-03-04T00:33:31.418Z,76.03
2019-03-04T00:36:01.826Z,75.61
2019-03-04T00:38:32.354Z,75.00
2019-03-04T00:41:02.772Z,75.37
2019-03-04T00:43:33.215Z,75.06
2019-03-04T00:46:03.640Z,74.69
2019-03-04T00:48:34.192Z,74.34
2019-03-04T00:51:04.596Z,74.45
2019-03-04T00:53:35.043Z,74.31
2019-03-04T00:56:05.442Z,74.14
2019-03-04T00:58:35.901Z,74.57
2019-03-04T01:01:06.324Z,74.29
2019-03-04T01:03:36.774Z,73.62
2019-03-04T01:06:07.193Z,74.06
2019-03-04T01:08:37.643Z,73.45
2019-03-04T01:11:09.219Z,74.22
2019-03-04T01:13:39.745Z,74.05
2019-03-04T01:16:10.165Z,73.42
2019-03-04T01:18:40.694Z,73.97
2019-03-04T01:21:11.116Z,74.04
2019-03-04T01:23:41.636Z,73.97
2019-03-04T01:26:12.061Z,73.70
2019-03-04T01:28:42.515Z,73.24
2019-03-04T01:31:12.992Z,73.51
2019-03-04T01:33:43.443Z,73.53
2019-03-04T01:36:13.865Z,74.11
2019-03-04T01:38:44.710Z,73.48
2019-03-04T01:41:15.105Z,73.15
2019-03-04T01:43:45.574Z,73.48
2019-03-04T01:46:16.985Z,73.41
2019-03-04T01:48:47.595Z,73.07
2019-03-04T01:51:18.036Z,72.83
2019-03-04T01:53:49.562Z,72.90
2019-03-04T01:56:19.985Z,73.00
2019-03-04T01:58:50.511Z,72.82
2019-03-04T02:01:20.914Z,72.35
2019-03-04T02:03:51.370Z,72.40
2019-03-04T02:06:21.802Z,72.63
2019-03-04T02:08:52.336Z,72.31
2019-03-04T02:11:22.876Z,72.22
2019-03-04T02:13:53.410Z,71.64
2019-03-04T02:16:23.841Z,71.17
2019-03-04T02:18:54.357Z,71.32
2019-03-04T02:21:24.764Z,71.37
2019-03-04T02:23:55.205Z,71.28
2019-03-04T02:26:25.703Z,70.90
2019-03-04T02:28:56.158Z,70.79
2019-03-04T02:31:26.566Z,70.50
2019-03-04T02:33:57.025Z,70.52
2019-03-04T02:36:27.439Z,69.94
2019-03-04T02:38:57.898Z,70.45
2019-03-04T02:41:28.322Z,70.49
2019-03-04T02:43:58.819Z,70.08
2019-03-04T02:46:29.262Z,70.27
2019-03-04T02:48:59.780Z,70.17
2019-03-04T02:51:30.254Z,70.85
2019-03-04T02:54:00.693Z,70.52
2019-03-04T02:56:31.110Z,70.67
2019-03-04T02:59:01.637Z,71.43
2019-03-04T03:01:32.074Z,70.90
2019-03-04T03:04:02.521Z,72.06
2019-03-04T03:06:33.084Z,72.11
2019-03-04T03:09:04.536Z,71.97
2019-03-04T03:11:36.220Z,72.59
2019-03-04T03:14:06.640Z,72.61
2019-03-04T03:16:37.138Z,72.75
2019-03-04T03:19:07.680Z,72.86
2019-03-04T03:21:38.111Z,73.03
2019-03-04T03:24:08.567Z,73.38
2019-03-04T03:26:40.064Z,73.73
2019-03-04T03:29:10.513Z,73.89
2019-03-04T03:31:40.928Z,73.91
2019-03-04T03:34:11.383Z,74.08
2019-03-04T03:36:41.847Z,74.34
2019-03-04T03:39:12.291Z,74.84
2019-03-04T03:41:42.774Z,74.48
2019-03-04T03:44:13.317Z,73.98
2019-03-04T03:46:43.745Z,73.86
2019-03-04T03:49:14.194Z,74.68
2019-03-04T03:51:44.595Z,74.40
2019-03-04T03:54:15.053Z,74.67
2019-03-04T03:56:45.466Z,74.71
2019-03-04T03:59:15.927Z,75.19
2019-03-04T04:01:46.351Z,75.16
2019-03-04T04:04:17.288Z,75.08
2019-03-04T04:06:47.692Z,75.58
2019-03-04T04:09:18.211Z,75.65
2019-03-04T04:11:48.610Z,75.48
2019-03-04T04:14:19.070Z,75.38
2019-03-04T04:16:49.546Z,75.03
2019-03-04T04:19:20.001Z,74.79
2019-03-04T04:21:50.415Z,74.63
2019-03-04T04:24:21.953Z,73.75
2019-03-04T04:26:52.447Z,73.91
2019-03-04T04:29:22.917Z,73.37
2019-03-04T04:31:53.327Z,72.94
2019-03-04T04:34:23.781Z,72.29
2019-03-04T04:36:54.207Z,71.80
2019-03-04T04:39:25.307Z,71.96
2019-03-04T04:41:55.784Z,71.72
2019-03-04T04:44:26.251Z,71.79
2019-03-04T04:46:56.680Z,72.04
2019-03-04T04:49:27.121Z,72.52
2019-03-04T04:51:57.612Z,71.77
2019-03-04T04:54:28.062Z,71.81
2019-03-04T04:56:58.463Z,70.96
2019-03-04T04:59:28.897Z,71.20
2019-03-04T05:01:59.377Z,70.67
2019-03-04T05:04:30.190Z,70.41
2019-03-04T05:07:00.675Z,70.59
2019-03-04T05:09:31.115Z,70.06
2019-03-04T05:12:01.536Z,69.98
2019-03-04T05:14:32.053Z,70.15
2019-03-04T05:17:02.536Z,70.06
2019-03-04T05:19:33.058Z,70.29
2019-03-04T05:22:03.501Z,70.25
2019-03-04T05:24:33.955Z,71.03
2019-03-04T05:27:05.445Z,71.25
2019-03-04T05:29:35.903Z,70.94
2019-03-04T05:32:06.393Z,70.94
2019-03-04T05:34:36.818Z,71.22
2019-03-04T05:37:07.502Z,71.06
2019-03-04T05:39:37.958Z,71.33
2019-03-04T05:42:08.380Z,71.24
2019-03-04T05:44:38.933Z,71.21
2019-03-04T05:47:09.424Z,71.29
2019-03-04T05:49:39.974Z,71.24
2019-03-04T05:52:10.414Z,71.27
2019-03-04T05:54:40.861Z,71.12
2019-03-04T05:57:11.645Z,71.42
2019-03-04T05:59:43.910Z,71.39
2019-03-04T06:02:14.487Z,71.65
2019-03-04T06:04:44.966Z,71.46
2019-03-04T06:07:19.978Z,71.09
2019-03-04T06:09:50.510Z,70.78
2019-03-04T06:12:20.989Z,70.84
2019-03-04T06:14:51.483Z,70.94
2019-03-04T06:17:21.950Z,71.18
2019-03-04T06:19:52.418Z,71.56
2019-03-04T06:22:22.865Z,71.93
2019-03-04T06:24:53.388Z,71.81
2019-03-04T06:27:23.826Z,72.03
2019-03-04T06:29:54.291Z,72.29
2019-03-04T06:32:26.421Z,72.25
2019-03-04T06:34:57.368Z,72.26
2019-03-04T06:37:27.845Z,72.32
2019-03-04T06:39:58.354Z,72.16
2019-03-04T06:42:29.003Z,72.44
2019-03-04T06:44:59.452Z,72.12
2019-03-04T06:47:29.903Z,72.28
2019-03-04T06:50:00.372Z,71.98
2019-03-04T06:52:30.891Z,71.58
2019-03-04T06:55:07.548Z,71.74
2019-03-04T06:57:38.047Z,71.12
2019-03-04T07:00:17.014Z,71.16
2019-03-04T07:02:47.680Z,70.47
2019-03-04T07:05:24.603Z,69.65
2019-03-04T07:07:56.093Z,68.21
2019-03-04T07:10:28.455Z,67.99
2019-03-04T07:12:58.949Z,67.31
2019-03-04T07:15:29.577Z,67.01
2019-03-04T07:18:00.167Z,66.55
2019-03-04T07:20:30.788Z,66.63
2019-03-04T07:23:04.016Z,67.21
2019-03-04T07:25:34.479Z,67.45
2019-03-04T07:28:08.425Z,67.67
2019-03-04T07:30:47.375Z,67.07
2019-03-04T07:33:17.924Z,66.58
2019-03-04T07:35:48.866Z,66.41
2019-03-04T07:38:22.585Z,66.66
2019-03-04T07:40:55.657Z,65.38
2019-03-04T07:43:37.925Z,65.34
2019-03-04T07:46:08.527Z,64.56
2019-03-04T07:48:40.683Z,64.55
2019-03-04T07:51:20.457Z,62.94
2019-03-04T07:53:57.256Z,62.25
2019-03-04T07:56:34.235Z,62.73
2019-03-04T07:59:05.854Z,61.76
2019-03-04T08:01:43.867Z,61.62
2019-03-04T08:04:14.631Z,61.21
2019-03-04T08:06:50.275Z,60.18
2019-03-04T08:09:26.739Z,59.52
2019-03-04T08:12:17.276Z,60.03
2019-03-04T08:15:08.313Z,59.44
2019-03-04T08:17:39.330Z,59.73
2019-03-04T08:20:09.832Z,59.33
2019-03-04T08:22:40.379Z,59.66
2019-03-04T08:25:11.933Z,60.14
2019-03-04T08:27:54.470Z,60.77
2019-03-04T08:30:42.833Z,60.32
2019-03-04T08:33:13.363Z,60.31
2019-03-04T08:35:43.839Z,61.42
2019-03-04T08:38:29.612Z,60.31
2019-03-04T08:41:18.269Z,59.08
2019-03-04T08:44:06.291Z,58.59
2019-03-04T08:46:51.861Z,57.10
2019-03-04T08:49:40.742Z,57.30
2019-03-04T08:52:17.378Z,56.45
2019-03-04T08:55:07.607Z,56.93
2019-03-04T08:57:38.188Z,57.40
2019-03-04T09:00:26.100Z,56.68
2019-03-04T09:02:56.542Z,56.66
2019-03-04T09:05:36.234Z,55.06
2019-03-04T09:08:12.914Z,54.65
2019-03-04T09:10:49.698Z,54.68
2019-03-04T09:13:38.402Z,53.81
2019-03-04T09:16:26.475Z,53.25
2019-03-04T09:18:56.974Z,53.34
2019-03-04T09:21:42.669Z,53.44
2019-03-04T09:24:23.791Z,52.63
2019-03-04T09:26:54.257Z,51.83
2019-03-04T09:29:30.810Z,51.31
2019-03-04T09:32:18.746Z,50.09
2019-03-04T09:35:10.119Z,51.14
2019-03-04T09:37:42.145Z,50.58
2019-03-04T09:40:32.044Z,50.32
2019-03-04T09:43:21.099Z,50.99
2019-03-04T09:45:51.631Z,50.78
2019-03-04T09:48:31.192Z,50.19
2019-03-04T09:51:07.756Z,49.24
2019-03-04T09:53:50.841Z,49.50
2019-03-04T09:56:27.245Z,49.30
2019-03-04T09:59:15.493Z,48.63
2019-03-04T10:01:49.574Z,49.43
2019-03-04T10:04:38.903Z,49.07
2019-03-04T10:07:33.316Z,49.48
2019-03-04T10:10:33.219Z,49.77
2019-03-04T10:13:27.149Z,50.79
2019-03-04T10:16:04.602Z,49.10
2019-03-04T10:18:54.593Z,48.46
2019-03-04T10:21:59.774Z,48.30
2019-03-04T10:24:48.830Z,47.18
2019-03-04T10:27:31.508Z,46.84
2019-03-04T10:30:11.371Z,46.81
2019-03-04T10:32:57.936Z,45.70
2019-03-04T10:35:51.335Z,45.41
2019-03-04T10:38:32.928Z,44.69
2019-03-04T10:41:28.191Z,43.20
2019-03-04T10:44:37.835Z,43.33
2019-03-04T10:47:06.038Z,43.67
2019-03-04T10:49:38.441Z,45.01
2019-03-04T10:52:10.436Z,46.55
2019-03-04T10:54:42.359Z,47.27
2019-03-04T10:57:12.956Z,46.72
2019-03-04T10:59:44.718Z,46.65
2019-03-04T11:02:15.630Z,45.15
2019-03-04T11:04:47.421Z,45.09
2019-03-04T11:07:18.490Z,44.78
2019-03-04T11:09:49.010Z,44.01
2019-03-04T11:12:21.146Z,43.70
2019-03-04T11:14:54.057Z,43.99
2019-03-04T11:17:25.611Z,43.30
2019-03-04T11:19:56.136Z,43.10
2019-03-04T11:22:26.638Z,43.28
2019-03-04T11:24:58.318Z,43.36
2019-03-04T11:27:30.729Z,43.18
2019-03-04T11:30:03.014Z,42.83
2019-03-04T11:32:34.794Z,44.17
2019-03-04T11:35:10.169Z,43.77
2019-03-04T11:37:41.606Z,43.77
2019-03-04T11:40:25.843Z,43.89
2019-03-04T11:42:56.908Z,44.11
2019-03-04T11:45:30.111Z,45.32
2019-03-04T11:48:01.557Z,44.97
2019-03-04T11:50:35.242Z,43.74
2019-03-04T11:53:08.769Z,43.97
2019-03-04T11:55:40.370Z,42.60
2019-03-04T11:58:12.500Z,40.96
2019-03-04T12:00:59.445Z,41.76
2019-03-04T12:03:29.935Z,40.68
2019-03-04T12:06:02.041Z,41.07
2019-03-04T12:08:34.565Z,40.19
2019-03-04T12:11:08.725Z,39.71
2019-03-04T12:13:40.404Z,39.39
2019-03-04T12:16:10.936Z,38.82
2019-03-04T12:18:41.440Z,39.88
2019-03-04T12:21:15.401Z,40.05
2019-03-04T12:23:46.117Z,40.29
2019-03-04T12:26:18.590Z,40.67
2019-03-04T12:28:52.438Z,41.00
2019-03-04T12:31:24.624Z,41.71
2019-03-04T12:33:56.722Z,42.18
2019-03-04T12:36:29.695Z,41.54
2019-03-04T12:39:02.650Z,41.66
2019-03-04T12:41:36.187Z,41.24
2019-03-04T12:44:07.013Z,40.80
2019-03-04T12:46:37.529Z,41.41
2019-03-04T12:49:09.171Z,39.73
2019-03-04T12:51:40.779Z,40.34
2019-03-04T12:54:11.289Z,39.93
2019-03-04T12:56:43.685Z,40.57
2019-03-04T12:59:14.720Z,41.66
2019-03-04T13:01:46.745Z,40.28
2019-03-04T13:04:17.432Z,39.96
2019-03-04T13:06:47.890Z,40.91
2019-03-04T13:09:19.357Z,41.81
2019-03-04T13:11:49.897Z,41.93
2019-03-04T13:14:21.351Z,41.56
2019-03-04T13:16:53.376Z,41.60
2019-03-04T13:19:24.347Z,41.52
2019-03-04T13:21:55.849Z,41.46
2019-03-04T13:24:26.289Z,41.71
2019-03-04T13:26:57.499Z,40.25
2019-03-04T13:29:27.920Z,39.81
2019-03-04T13:31:58.786Z,40.68
2019-03-04T13:34:29.423Z,39.35
2019-03-04T13:36:59.958Z,38.52
2019-03-04T13:39:30.561Z,38.65
2019-03-04T13:42:02.104Z,37.06
2019-03-04T13:44:32.990Z,37.57
2019-03-04T13:47:07.083Z,37.46
2019-03-04T13:49:37.591Z,36.96
2019-03-04T13:52:08.319Z,36.63
2019-03-04T13:54:38.742Z,36.80
2019-03-04T13:57:10.013Z,37.06
2019-03-04T13:59:40.561Z,35.67
2019-03-04T14:02:12.530Z,33.63
2019-03-04T14:04:44.689Z,32.87
2019-03-04T14:07:15.227Z,32.03
2019-03-04T14:09:47.269Z,31.35
2019-03-04T14:12:19.346Z,32.08
2019-03-04T14:14:50.216Z,33.15
2019-03-04T14:17:20.750Z,33.20
2019-03-04T14:19:51.247Z,34.61
2019-03-04T14:22:21.852Z,35.59
2019-03-04T14:24:52.283Z,35.83
2019-03-04T14:27:22.796Z,37.05
2019-03-04T14:29:53.451Z,36.04
2019-03-04T14:32:26.141Z,36.47
2019-03-04T14:34:57.179Z,36.56
2019-03-04T14:37:35.432Z,35.75
2019-03-04T14:40:32.661Z,36.44
2019-03-04T14:43:10.625Z,36.93
2019-03-04T14:45:41.057Z,35.82
2019-03-04T14:48:11.521Z,36.64
2019-03-04T14:50:42.170Z,36.75
2019-03-04T14:53:12.638Z,37.18
2019-03-04T14:55:43.239Z,37.18
2019-03-04T14:58:13.712Z,36.29
2019-03-04T15:00:51.589Z,37.51
2019-03-04T15:03:23.837Z,37.64
2019-03-04T15:05:54.264Z,38.59
2019-03-04T15:08:24.800Z,38.20
2019-03-04T15:10:55.225Z,37.00
2019-03-04T15:13:25.682Z,37.58
2019-03-04T15:16:01.658Z,39.00
2019-03-04T15:18:29.341Z,37.45
2019-03-04T15:20:59.772Z,38.26
2019-03-04T15:23:30.392Z,39.03
2019-03-04T15:26:00.830Z,38.97
2019-03-04T15:28:31.350Z,39.56
2019-03-04T15:31:05.268Z,40.06
2019-03-04T15:33:37.732Z,40.68
2019-03-04T15:36:08.161Z,40.73
2019-03-04T15:38:38.635Z,40.15
2019-03-04T15:41:10.522Z,40.80
2019-03-04T15:43:43.494Z,41.13
2019-03-04T15:46:16.216Z,40.89
2019-03-04T15:48:46.918Z,40.79
2019-03-04T15:51:17.916Z,39.44
2019-03-04T15:53:50.328Z,37.82
2019-03-04T15:56:20.741Z,35.35
2019-03-04T15:58:51.832Z,35.45
2019-03-04T16:01:22.680Z,35.40
2019-03-04T16:03:53.589Z,34.80
2019-03-04T16:06:24.891Z,35.53
2019-03-04T16:08:57.104Z,36.01
2019-03-04T16:11:27.647Z,36.68
2019-03-04T16:13:59.677Z,35.67
2019-03-04T16:16:30.620Z,35.67
2019-03-04T16:19:01.169Z,35.71
2019-03-04T16:21:32.249Z,35.54
2019-03-04T16:24:03.255Z,36.27
2019-03-04T16:26:34.864Z,36.59
2019-03-04T16:29:05.729Z,36.37
2019-03-04T16:31:36.309Z,37.30
2019-03-04T16:34:06.850Z,37.29
2019-03-04T16:36:37.463Z,38.22
2019-03-04T16:39:10.261Z,37.75
2019-03-04T16:41:41.694Z,37.68
2019-03-04T16:44:17.057Z,38.90
2019-03-04T16:46:48.528Z,39.52
2019-03-04T16:49:19.194Z,39.65
2019-03-04T16:51:50.349Z,39.69
2019-03-04T16:54:20.919Z,40.04
2019-03-04T16:56:51.465Z,40.37
2019-03-04T16:59:22.025Z,41.12
2019-03-04T17:01:53.522Z,42.06
2019-03-04T17:04:24.159Z,41.66
2019-03-04T17:06:55.884Z,42.30
2019-03-04T17:09:26.483Z,41.75
2019-03-04T17:11:57.385Z,41.77
2019-03-04T17:14:29.179Z,42.62
2019-03-04T17:17:00.073Z,43.27
2019-03-04T17:19:31.933Z,42.92
2019-03-04T17:22:02.603Z,42.84
2019-03-04T17:24:35.650Z,42.67
2019-03-04T17:27:08.683Z,43.09
2019-03-04T17:29:40.116Z,42.67
2019-03-04T17:32:11.014Z,40.80
2019-03-04T17:34:41.560Z,40.95
2019-03-04T17:37:12.838Z,39.95
2019-03-04T17:39:43.869Z,39.43
2019-03-04T17:42:14.572Z,39.60
2019-03-04T17:44:45.087Z,39.14
2019-03-04T17:47:15.595Z,39.57
2019-03-04T17:49:46.213Z,40.08
2019-03-04T17:52:16.693Z,39.08
2019-03-04T17:54:47.151Z,39.38
2019-03-04T17:57:17.861Z,38.72
2019-03-04T17:59:48.395Z,38.64
2019-03-04T18:02:19.068Z,38.84
2019-03-04T18:04:49.727Z,38.99
2019-03-04T18:07:20.219Z,39.69
2019-03-04T18:09:50.716Z,39.57
2019-03-04T18:12:53.292Z,39.51
2019-03-04T18:16:15.831Z,40.27
2019-03-04T18:18:53.862Z,40.28
2019-03-04T18:21:24.438Z,40.72
2019-03-04T18:23:54.942Z,40.36
2019-03-04T18:26:31.674Z,40.26
2019-03-04T18:29:23.094Z,40.70
2019-03-04T18:32:08.803Z,40.49
2019-03-04T18:34:42.561Z,41.07
2019-03-04T18:37:21.886Z,41.17
2019-03-04T18:39:58.153Z,41.82
2019-03-04T18:42:34.844Z,41.29
2019-03-04T18:45:14.241Z,41.27
2019-03-04T18:48:00.401Z,41.69
2019-03-04T18:50:30.921Z,41.95
2019-03-04T18:53:01.841Z,41.46
2019-03-04T18:55:33.357Z,41.51
2019-03-04T18:58:04.161Z,41.48
2019-03-04T19:00:34.673Z,41.45
2019-03-04T19:03:05.291Z,43.60
2019-03-04T19:05:36.783Z,49.34
2019-03-04T19:08:07.325Z,50.02
2019-03-04T19:10:37.806Z,51.24
2019-03-04T19:13:08.352Z,51.29
2019-03-04T19:15:38.801Z,51.73
2019-03-04T19:18:09.373Z,52.79
2019-03-04T19:20:39.901Z,53.38
2019-03-04T19:23:10.558Z,54.46
2019-03-04T19:25:41.032Z,55.05
2019-03-04T19:28:11.578Z,55.75
2019-03-04T19:31:18.496Z,55.71
2019-03-04T19:33:51.293Z,56.21
2019-03-04T19:36:23.249Z,56.77
2019-03-04T19:38:55.894Z,55.68
2019-03-04T19:41:27.109Z,55.34
2019-03-04T19:43:57.547Z,54.72
2019-03-04T19:46:28.032Z,54.95
2019-03-04T19:48:58.581Z,55.39
2019-03-04T19:51:29.458Z,55.62
2019-03-04T19:54:06.352Z,62.49
2019-03-04T19:56:38.756Z,61.55
2019-03-04T19:59:09.466Z,66.11
2019-03-04T20:01:40.346Z,64.07
2019-03-04T20:04:12.634Z,63.48
2019-03-04T20:06:43.122Z,61.97
2019-03-04T20:09:13.737Z,62.28
2019-03-04T20:11:44.230Z,60.50
2019-03-04T20:14:15.165Z,60.99
2019-03-04T20:16:47.013Z,61.53
2019-03-04T20:19:17.521Z,61.55
2019-03-04T20:21:47.945Z,61.79
2019-03-04T20:24:18.535Z,62.21
2019-03-04T20:26:49.015Z,62.02
2019-03-04T20:29:19.523Z,61.95
2019-03-04T20:31:50.009Z,62.11
2019-03-04T20:34:20.742Z,61.50
2019-03-04T20:36:51.253Z,61.29
2019-03-04T20:39:21.852Z,61.33
2019-03-04T20:41:52.352Z,61.52
2019-03-04T20:44:22.876Z,61.26
2019-03-04T20:46:53.441Z,61.28
2019-03-04T20:49:24.042Z,61.81
2019-03-04T20:51:55.547Z,62.33
2019-03-04T20:54:26.052Z,62.27
2019-03-04T20:56:56.673Z,62.79
2019-03-04T20:59:27.177Z,63.01
2019-03-04T21:01:57.746Z,63.43
2019-03-04T21:04:41.250Z,63.62
2019-03-04T21:07:13.993Z,63.48
2019-03-04T21:09:45.129Z,63.88
2019-03-04T21:12:15.657Z,63.68
2019-03-04T21:14:46.229Z,64.01
2019-03-04T21:17:16.718Z,63.79
2019-03-04T21:19:47.247Z,64.18
2019-03-04T21:22:17.746Z,64.27
2019-03-04T21:24:48.275Z,64.60
2019-03-04T21:27:18.762Z,63.92
2019-03-04T21:30:16.607Z,64.21
2019-03-04T21:32:47.280Z,63.79
2019-03-04T21:35:36.979Z,63.62
2019-03-04T21:38:07.541Z,62.73
2019-03-04T21:40:43.931Z,63.03
2019-03-04T21:43:18.664Z,63.17
2019-03-04T21:46:07.293Z,63.72
2019-03-04T21:48:43.705Z,64.00
2019-03-04T21:51:38.285Z,65.41
2019-03-04T21:54:07.457Z,65.63
2019-03-04T21:57:00.254Z,65.64
2019-03-04T21:59:30.753Z,65.75
2019-03-04T22:02:23.198Z,65.32
2019-03-04T22:04:54.742Z,65.45
2019-03-04T22:07:25.278Z,65.26
2019-03-04T22:09:55.727Z,65.53
2019-03-04T22:12:26.245Z,65.74
2019-03-04T22:14:56.802Z,65.48
2019-03-04T22:17:27.337Z,65.39
2019-03-04T22:19:57.756Z,65.16
2019-03-04T22:22:28.342Z,65.06
2019-03-04T22:25:16.425Z,65.20
2019-03-04T22:28:14.006Z,64.69
2019-03-04T22:30:53.141Z,64.58
2019-03-04T22:33:25.074Z,64.72
2019-03-04T22:36:06.124Z,64.77
2019-03-04T22:38:39.830Z,64.36
2019-03-04T22:41:10.659Z,64.12
2019-03-04T22:43:41.173Z,63.78
2019-03-04T22:46:11.598Z,63.88
2019-03-04T22:48:42.214Z,63.86
2019-03-04T22:51:13.684Z,63.61
2019-03-04T22:53:45.201Z,63.45
2019-03-04T22:56:16.714Z,63.43
2019-03-04T22:58:47.211Z,63.26
2019-03-04T23:01:26.926Z,63.28
2019-03-04T23:04:00.527Z,63.16
2019-03-04T23:06:36.992Z,63.61
2019-03-04T23:09:10.706Z,63.18
2019-03-04T23:11:44.695Z,63.23
2019-03-04T23:14:18.541Z,62.96
2019-03-04T23:16:49.024Z,62.89
2019-03-04T23:19:19.480Z,62.86
2019-03-04T23:21:49.981Z,62.79
2019-03-04T23:24:20.442Z,62.81
2019-03-04T23:26:50.936Z,62.72
2019-03-04T23:29:21.402Z,62.53
2019-03-04T23:31:51.830Z,62.14
2019-03-04T23:34:23.454Z,62.30
2019-03-04T23:36:53.872Z,62.20
2019-03-04T23:39:24.331Z,62.00
2019-03-04T23:41:54.753Z,61.91
2019-03-04T23:44:25.198Z,61.85
2019-03-04T23:46:55.693Z,61.36
2019-03-04T23:49:26.136Z,61.27
2019-03-04T23:51:56.537Z,61.11
2019-03-04T23:54:26.985Z,61.42
2019-03-04T23:56:57.410Z,60.66
2019-03-04T23:59:28.023Z,60.76
